createdAt,value
2022-07-28T00:00:36.251Z,-26.3
2022-07-28T00:06:40.144Z,-26.1
2022-07-28T00:08:41.608Z,-26.1
2022-07-28T00:10:42.780Z,-26.6
2022-07-28T00:12:43.878Z,-26.3
2022-07-28T00:16:47.407Z,-26.1
2022-07-28T00:20:49.868Z,-26.4
2022-07-28T00:22:51.751Z,-26.3
2022-07-28T00:24:53.391Z,-26.2
2022-07-28T00:26:54.877Z,-26.3
2022-07-28T00:30:57.830Z,-26.2
2022-07-28T00:32:59.299Z,-26.6
2022-07-28T00:35:00.986Z,-26.2
2022-07-28T00:37:02.489Z,-26.3
2022-07-28T00:39:03.577Z,-26.1
2022-07-28T00:41:05.203Z,-26.2
2022-07-28T00:43:06.812Z,-26.4
2022-07-28T00:45:08.444Z,-26.4
2022-07-28T00:47:09.475Z,-26
2022-07-28T00:49:10.990Z,-26.2
2022-07-28T00:51:11.973Z,-26.1
2022-07-28T00:53:13.714Z,-26.6
2022-07-28T00:55:15.278Z,-26.4
2022-07-28T00:57:17.057Z,-26.2
2022-07-28T00:59:18.701Z,-26.4
2022-07-28T01:03:21.445Z,-26.3
2022-07-28T01:05:43.192Z,-26.6
2022-07-28T01:07:24.134Z,-26.3
2022-07-28T01:09:25.249Z,-26.5
2022-07-28T01:11:26.415Z,-26.5
2022-07-28T01:15:29.486Z,-26.2
2022-07-28T01:17:30.410Z,-26.3
2022-07-28T01:19:31.886Z,-26.1
2022-07-28T01:21:33.423Z,-26.4
2022-07-28T01:23:35.059Z,-25.9
2022-07-28T01:25:36.925Z,-26.5
2022-07-28T01:29:40.143Z,-26.1
2022-07-28T01:31:41.664Z,-26.3
2022-07-28T01:33:42.586Z,-26.4
2022-07-28T01:35:43.678Z,-26.3
2022-07-28T01:37:45.403Z,-26.2
2022-07-28T01:39:46.489Z,-26.5
2022-07-28T01:41:47.669Z,-26.2
2022-07-28T01:43:49.085Z,-26.1
2022-07-28T01:45:50.984Z,-26.7
2022-07-28T01:47:52.283Z,-26.4
2022-07-28T01:51:55.056Z,-26.2
2022-07-28T01:53:56.067Z,-26.3
2022-07-28T01:55:57.840Z,-26.3
2022-07-28T01:57:59.413Z,-26.1
2022-07-28T02:00:01.070Z,-26
2022-07-28T02:02:02.206Z,-26.3
2022-07-28T02:04:03.845Z,-26.2
2022-07-28T02:06:05.628Z,-26.4
2022-07-28T02:08:50.677Z,-26.5
2022-07-28T02:10:52.258Z,-26.5
2022-07-28T02:12:53.834Z,-26
2022-07-28T02:14:55.069Z,-26.1
2022-07-28T02:16:56.688Z,-26.3
2022-07-28T02:18:58.339Z,-26.5
2022-07-28T02:21:00.246Z,-26.5
2022-07-28T02:23:02.067Z,-26.2
2022-07-28T02:27:04.789Z,-26.3
2022-07-28T02:29:05.996Z,-26.3
2022-07-28T02:31:07.293Z,-26.5
2022-07-28T02:33:08.510Z,-26.5
2022-07-28T02:35:10.205Z,-26.4
2022-07-28T02:37:11.305Z,-26.5
2022-07-28T02:39:13.089Z,-26.4
2022-07-28T02:41:14.202Z,-26.5
2022-07-28T02:43:15.558Z,-26.3
2022-07-28T02:45:17.034Z,-26.2
2022-07-28T02:49:19.643Z,-26.5
2022-07-28T02:51:21.396Z,-26.4
2022-07-28T02:53:22.536Z,-26.2
2022-07-28T02:55:24.048Z,-26.4
2022-07-28T02:57:25.774Z,-26.1
2022-07-28T02:59:26.724Z,-26.6
2022-07-28T03:01:27.745Z,-26
2022-07-28T03:03:29.422Z,-26.2
2022-07-28T03:05:30.641Z,-26.1
2022-07-28T03:07:32.397Z,-26.2
2022-07-28T03:09:33.817Z,-26.2
2022-07-28T03:11:35.417Z,-26.3
2022-07-28T03:13:36.375Z,-26.2
2022-07-28T03:15:38.144Z,-26.2
2022-07-28T03:17:39.306Z,-26.3
2022-07-28T03:19:40.914Z,-26.3
2022-07-28T03:21:42.693Z,-26.1
2022-07-28T03:23:44.173Z,-26.5
2022-07-28T03:25:45.243Z,-26.3
2022-07-28T03:27:47.020Z,-26.3
2022-07-28T03:38:59.756Z,-26.3
2022-07-28T03:43:07.487Z,-26.2
2022-07-28T03:44:01.212Z,-26.2
2022-07-28T03:46:03.010Z,-26.3
2022-07-28T03:50:03.013Z,-26.6
2022-07-28T03:52:04.330Z,-26.3
2022-07-28T03:54:05.358Z,-26.4
2022-07-28T03:56:06.755Z,-26.3
2022-07-28T03:58:08.415Z,-26.5
2022-07-28T04:00:09.932Z,-26.2
2022-07-28T04:02:11.082Z,-26.5
2022-07-28T04:04:13.069Z,-26.4
2022-07-28T04:06:14.463Z,-26.3
2022-07-28T04:08:15.683Z,-26
2022-07-28T04:10:17.109Z,-26.3
2022-07-28T04:12:18.165Z,-26.3
2022-07-28T04:16:20.771Z,-26.2
2022-07-28T04:18:22.574Z,-26.2
2022-07-28T04:20:24.277Z,-26.2
2022-07-28T04:22:25.552Z,-26.5
2022-07-28T04:24:26.837Z,-26.2
2022-07-28T04:26:28.624Z,-26.4
2022-07-28T04:32:31.894Z,-26.3
2022-07-28T04:34:33.517Z,-26.3
2022-07-28T04:36:35.374Z,-26.2
2022-07-28T04:38:37.229Z,-26.3
2022-07-28T04:40:38.338Z,-26.1
2022-07-28T04:42:39.513Z,-26.5
2022-07-28T04:44:41.043Z,-26.5
2022-07-28T04:46:42.129Z,-26.2
2022-07-28T04:48:43.204Z,-26.2
2022-07-28T04:50:44.406Z,-26.3
2022-07-28T04:52:46.053Z,-26.1
2022-07-28T04:56:48.671Z,-26.4
2022-07-28T04:58:49.672Z,-26.5
2022-07-28T05:02:52.442Z,-26.1
2022-07-28T05:04:53.810Z,-26.1
2022-07-28T05:06:55.309Z,-26.2
2022-07-28T05:08:56.572Z,-26.1
2022-07-28T05:13:00.036Z,-5.3
2022-07-28T05:15:00.987Z,-6
2022-07-28T05:17:02.265Z,-5.6
2022-07-28T05:19:03.322Z,-3.6
2022-07-28T05:21:04.631Z,-6.5
2022-07-28T05:23:05.575Z,-12.3
2022-07-28T05:25:06.744Z,6.8
2022-07-28T05:27:08.093Z,17.6
2022-07-28T05:29:09.266Z,25.1
2022-07-28T05:31:10.946Z,28.8
2022-07-28T05:33:12.242Z,30.9
2022-07-28T05:35:13.454Z,29.7
2022-07-28T05:37:15.102Z,36.7
2022-07-28T05:39:16.118Z,42.5
2022-07-28T05:41:17.364Z,16.1
2022-07-28T05:45:19.781Z,-6.7
2022-07-28T05:47:21.146Z,-3.7
2022-07-28T05:49:22.710Z,48
2022-07-28T05:51:23.944Z,28.5
2022-07-28T05:53:25.094Z,5.9
2022-07-28T05:57:28.310Z,78.4
2022-07-28T05:59:29.771Z,77
2022-07-28T06:01:31.476Z,17.1
2022-07-28T06:03:32.519Z,20.9
2022-07-28T06:05:33.482Z,76.1
2022-07-28T06:07:42.619Z,19.29
2022-07-28T06:11:37.958Z,24.6
2022-07-28T06:13:39.736Z,35.3
2022-07-28T06:15:40.948Z,73.9
2022-07-28T06:17:41.843Z,72.9
2022-07-28T06:19:43.012Z,71.9
2022-07-28T06:21:45.147Z,70.8
2022-07-28T06:23:46.685Z,70.1
2022-07-28T06:25:47.547Z,69.6
2022-07-28T06:27:48.546Z,69
2022-07-28T06:29:50.071Z,67.4
2022-07-28T06:31:50.999Z,66.5
2022-07-28T06:33:52.464Z,65
2022-07-28T06:35:54.121Z,64.1
2022-07-28T06:37:55.548Z,62.7
2022-07-28T06:39:56.753Z,61.5
2022-07-28T06:41:57.558Z,60.8
2022-07-28T06:43:58.712Z,61.6
2022-07-28T06:46:00.081Z,54.2
2022-07-28T06:48:01.176Z,56.7
2022-07-28T06:50:02.326Z,55.5
2022-07-28T06:54:08.039Z,52.4
2022-07-28T06:56:15.598Z,50.8
2022-07-28T06:58:07.780Z,48.8
2022-07-28T07:00:09.480Z,47.5
2022-07-28T07:04:12.613Z,44.8
2022-07-28T07:06:14.010Z,43.9
2022-07-28T07:08:15.875Z,41.7
2022-07-28T07:10:17.004Z,39.9
2022-07-28T07:12:17.991Z,38.4
2022-07-28T07:14:19.645Z,37.59
2022-07-28T07:16:20.576Z,35.8
2022-07-28T07:18:21.457Z,33.8
2022-07-28T07:22:24.470Z,30.4
2022-07-28T07:26:27.491Z,29.4
2022-07-28T07:28:29.181Z,29.1
2022-07-28T07:30:30.409Z,27.1
2022-07-28T07:32:31.949Z,25.6
2022-07-28T07:38:36.284Z,21.7
2022-07-28T07:40:38.255Z,20.1
2022-07-28T07:42:39.216Z,20.9
2022-07-28T07:44:40.449Z,18.79
2022-07-28T07:46:42.231Z,18.5
2022-07-28T07:48:43.732Z,17
2022-07-28T07:50:44.719Z,15.8
2022-07-28T07:52:46.199Z,16
2022-07-28T07:54:47.726Z,13.4
2022-07-28T07:56:48.552Z,11.7
2022-07-28T07:58:52.457Z,-26.2
2022-07-28T08:00:51.400Z,-26.1
2022-07-28T08:02:53.006Z,-26.3
2022-07-28T08:04:54.462Z,-26.3
2022-07-28T08:06:56.356Z,-26
2022-07-28T08:08:57.002Z,-26.2
2022-07-28T08:10:58.327Z,-26.5
2022-07-28T08:12:59.915Z,-26.1
2022-07-28T08:15:01.301Z,-26.2
2022-07-28T08:17:02.681Z,-26
2022-07-28T08:19:04.169Z,-26.1
2022-07-28T08:21:05.833Z,-26.2
2022-07-28T08:23:07.440Z,-26.3
2022-07-28T08:25:08.253Z,-26.1
2022-07-28T08:27:09.440Z,-26.5
2022-07-28T08:29:10.479Z,-26.3
2022-07-28T08:31:11.321Z,-26
2022-07-28T08:37:15.278Z,-26
2022-07-28T08:39:16.552Z,-26.2
2022-07-28T08:41:18.007Z,-26
2022-07-28T08:43:19.169Z,-26.2
2022-07-28T08:45:20.054Z,-26.4
2022-07-28T08:47:20.988Z,-26
2022-07-28T08:51:23.421Z,-26.4
2022-07-28T08:52:08.116Z,-25.7
2022-07-28T08:58:12.355Z,-26.3
2022-07-28T09:00:13.685Z,-26.1
2022-07-28T09:02:14.937Z,-26.1
2022-07-28T09:04:16.855Z,-26.3
2022-07-28T09:06:17.750Z,-26.6
2022-07-28T09:10:19.492Z,-25.9
2022-07-28T09:12:21.026Z,-26.2
2022-07-28T09:14:21.897Z,-25.9
2022-07-28T09:16:23.467Z,-26.3
2022-07-28T09:18:25.046Z,-26.5
2022-07-28T09:20:26.517Z,-26.3
2022-07-28T09:22:28.118Z,-26.4
2022-07-28T09:24:29.553Z,-26.1
2022-07-28T09:26:30.831Z,-26.1
2022-07-28T09:28:32.331Z,-26.1
2022-07-28T09:30:33.764Z,-26.1
2022-07-28T09:32:35.081Z,-26.1
2022-07-28T09:40:40.099Z,-26.1
2022-07-28T09:42:41.045Z,-26.2
2022-07-28T09:44:50.730Z,-26.5
2022-07-28T09:46:43.493Z,-26.3
2022-07-28T09:48:44.661Z,-26.2
2022-07-28T09:50:45.853Z,-26.4
2022-07-28T09:52:46.669Z,-25.9
2022-07-28T09:54:47.983Z,-26.1
2022-07-28T09:56:48.887Z,-25.8
2022-07-28T09:58:50.542Z,-26.2
2022-07-28T10:00:51.899Z,-26.1
2022-07-28T10:02:53.348Z,-26.1
2022-07-28T10:04:54.740Z,-26.3
2022-07-28T10:06:56.243Z,-26.3
2022-07-28T10:08:57.629Z,-26.1
2022-07-28T10:10:59.210Z,-26.3
2022-07-28T10:13:00.676Z,-26.2
2022-07-28T10:15:01.527Z,-26.1
2022-07-28T10:17:06.104Z,-26.4
2022-07-28T10:19:05.069Z,-26.1
2022-07-28T10:21:06.052Z,-26.2
2022-07-28T10:23:07.465Z,-26.2
2022-07-28T10:25:09.129Z,-26.2
2022-07-28T10:27:10.782Z,-26.4
2022-07-28T10:29:11.735Z,-26.3
2022-07-28T10:31:12.819Z,-25.9
2022-07-28T10:33:14.133Z,-26.1
2022-07-28T10:35:15.161Z,-26.2
2022-07-28T10:37:16.078Z,-26.5
2022-07-28T10:41:19.103Z,-26.1
2022-07-28T10:43:19.974Z,-26.5
2022-07-28T10:45:21.033Z,-26.2
2022-07-28T10:47:22.806Z,-26.4
2022-07-28T10:49:27.407Z,-26.1
2022-07-28T10:51:28.228Z,-26.3
2022-07-28T10:53:27.414Z,-26.3
2022-07-28T10:55:31.610Z,-26.2
2022-07-28T10:57:29.632Z,-26
2022-07-28T10:59:31.054Z,-26.2
2022-07-28T11:03:33.513Z,-26.2
2022-07-28T11:05:34.434Z,-26.4
2022-07-28T11:07:35.508Z,-26.1
2022-07-28T11:09:37.076Z,-26
2022-07-28T11:11:38.809Z,-26.2
2022-07-28T11:13:40.966Z,-26.1
2022-07-28T11:15:40.752Z,-26.1
2022-07-28T11:20:01.059Z,-26.2
2022-07-28T11:21:43.869Z,-26.3
2022-07-28T11:23:46.522Z,-26.3
2022-07-28T11:25:45.775Z,-26.2
2022-07-28T11:27:46.869Z,-26.2
2022-07-28T11:29:48.386Z,-26.1
2022-07-28T11:31:49.754Z,-26
2022-07-28T11:33:51.310Z,-26.2
2022-07-28T11:35:52.356Z,-26
2022-07-28T11:37:53.219Z,-26.1
2022-07-28T11:39:54.423Z,-26.1
2022-07-28T11:41:55.583Z,-26.3
2022-07-28T11:43:56.743Z,-26.1
2022-07-28T11:45:58.268Z,-26.1
2022-07-28T11:47:59.528Z,-26.2
2022-07-28T11:50:00.749Z,-26.3
2022-07-28T11:52:01.700Z,-26.1
2022-07-28T11:54:03.218Z,-26.3
2022-07-28T11:56:04.805Z,-26.1
2022-07-28T11:58:14.589Z,-26.2
2022-07-28T12:00:06.938Z,-26.1
2022-07-28T12:02:08.031Z,-26.3
2022-07-28T12:04:10.318Z,-26.4
2022-07-28T12:06:10.385Z,-26
2022-07-28T12:08:11.845Z,-26
2022-07-28T12:10:21.521Z,-26.3
2022-07-28T12:12:15.036Z,-25.8
2022-07-28T12:14:16.142Z,-26.2
2022-07-28T12:16:17.311Z,-26.2
2022-07-28T12:18:18.932Z,-26.1
2022-07-28T12:24:22.858Z,-26.1
2022-07-28T12:26:26.185Z,-26.2
2022-07-28T12:28:24.949Z,-26.6
2022-07-28T12:30:25.850Z,-26.2
2022-07-28T12:32:27.284Z,-26.2
2022-07-28T12:34:29.500Z,-26.5
2022-07-28T12:36:29.923Z,-26.1
2022-07-28T12:38:31.660Z,-25.9
2022-07-28T12:40:32.716Z,-26.1
2022-07-28T12:42:33.600Z,-26.4
2022-07-28T12:44:35.184Z,-26.1
2022-07-28T12:46:36.049Z,-26
2022-07-28T12:48:36.943Z,-26.2
2022-07-28T12:52:39.938Z,-26.2
2022-07-28T12:54:41.411Z,-26.1
2022-07-28T12:56:42.239Z,-26.1
2022-07-28T12:58:43.297Z,-26.1
2022-07-28T13:00:44.760Z,-26.3
2022-07-28T13:04:47.165Z,-26.1
2022-07-28T13:06:48.745Z,-25.9
2022-07-28T13:08:50.093Z,-26.1
2022-07-28T13:10:55.763Z,-26.4
2022-07-28T13:12:53.149Z,-25.9
2022-07-28T13:14:54.581Z,-26.3
2022-07-28T13:18:57.271Z,59.8
2022-07-28T13:22:59.626Z,56.3
2022-07-28T13:25:00.876Z,54.6
2022-07-28T13:27:01.659Z,52.4
2022-07-28T13:29:02.888Z,51.2
2022-07-28T13:31:04.199Z,49.2
2022-07-28T13:33:06.066Z,46.9
2022-07-28T13:35:06.158Z,45.4
2022-07-28T13:37:06.892Z,44.1
2022-07-28T13:39:08.041Z,42.4
2022-07-28T13:43:11.302Z,38.4
2022-07-28T13:45:11.947Z,37.5
2022-07-28T13:47:13.017Z,35.2
2022-07-28T13:49:14.255Z,34.7
2022-07-28T13:51:15.214Z,33.5
2022-07-28T13:53:15.935Z,31.2
2022-07-28T13:55:17.795Z,29.5
2022-07-28T13:57:18.998Z,27.2
2022-07-28T13:59:20.468Z,27.4
2022-07-28T14:05:24.802Z,21.9
2022-07-28T14:07:26.499Z,21.3
2022-07-28T14:09:27.418Z,19.5
2022-07-28T14:13:31.423Z,17
2022-07-28T14:15:30.563Z,15.9
2022-07-28T14:17:43.110Z,14.7
2022-07-28T14:19:39.281Z,12
2022-07-28T14:23:35.342Z,10.7
2022-07-28T14:25:48.495Z,10.1
2022-07-28T14:27:37.429Z,9.3
2022-07-28T14:31:40.463Z,9.39
2022-07-28T14:35:43.257Z,-26.1
2022-07-28T14:38:23.479Z,-26.1
2022-07-28T14:41:46.725Z,-26.3
2022-07-28T14:45:50.482Z,-26.2
2022-07-28T14:47:51.530Z,-26.3
2022-07-28T14:49:57.610Z,-26.2
2022-07-28T14:53:55.622Z,-26.2
2022-07-28T14:55:56.631Z,-26.2
2022-07-28T14:57:57.801Z,-26
2022-07-28T14:59:58.818Z,-26.3
2022-07-28T15:02:00.303Z,-25.9
2022-07-28T15:04:01.661Z,-26.1
2022-07-28T15:06:03.247Z,-26.1
2022-07-28T15:08:04.059Z,-26.2
2022-07-28T15:10:05.106Z,-25.9
2022-07-28T15:12:05.910Z,-26.1
2022-07-28T15:14:07.405Z,-25.9
2022-07-28T15:16:08.350Z,-26.1
2022-07-28T15:18:09.995Z,-26.2
2022-07-28T15:20:11.270Z,-26
2022-07-28T15:22:12.660Z,-26.1
2022-07-28T15:24:14.679Z,-26.3
2022-07-28T15:26:15.190Z,-26.4
2022-07-28T15:28:17.664Z,-26.2
2022-07-28T15:30:17.259Z,-26.2
2022-07-28T15:32:18.926Z,-26.1
2022-07-28T15:34:19.976Z,-26.1
2022-07-28T15:36:21.454Z,-26.3
2022-07-28T15:38:22.383Z,-26.2
2022-07-28T15:41:07.580Z,-26.1
2022-07-28T15:43:08.750Z,-26.3
2022-07-28T15:45:10.111Z,-26.3
2022-07-28T15:49:12.238Z,-26.2
2022-07-28T15:51:13.221Z,-26
2022-07-28T15:53:14.249Z,-26
2022-07-28T15:55:16.597Z,-26.3
2022-07-28T15:57:17.771Z,-26.3
2022-07-28T15:59:18.924Z,-26.2
2022-07-28T16:01:20.635Z,-25.8
2022-07-28T16:03:21.558Z,-26.3
2022-07-28T16:07:24.057Z,-26.2
2022-07-28T16:09:25.416Z,-26.2
2022-07-28T16:11:26.250Z,-26.1
2022-07-28T16:13:31.278Z,-26.4
2022-07-28T16:15:28.572Z,-26.2
2022-07-28T16:17:29.624Z,-26.2
2022-07-28T16:19:48.816Z,-26.2
2022-07-28T16:21:31.788Z,-26.5
2022-07-28T16:23:33.335Z,-26.2
2022-07-28T16:27:35.846Z,-26.4
2022-07-28T16:29:37.940Z,-26.2
2022-07-28T16:31:40.802Z,-26.1
2022-07-28T16:33:39.586Z,-26.1
2022-07-28T16:35:41.268Z,-26
2022-07-28T16:37:42.170Z,-26
2022-07-28T16:39:43.343Z,-26.2
2022-07-28T16:41:47.097Z,-26.3
2022-07-28T16:43:45.740Z,-26.1
2022-07-28T16:45:46.896Z,-26.5
2022-07-28T16:47:48.816Z,-26.2
2022-07-28T16:49:49.554Z,-26.2
2022-07-28T16:51:50.338Z,-26.2
2022-07-28T16:53:51.931Z,-26.2
2022-07-28T16:55:53.675Z,-26.1
2022-07-28T16:57:54.982Z,-26
2022-07-28T16:59:56.628Z,-26.2
2022-07-28T17:01:57.643Z,-25.9
2022-07-28T17:03:58.768Z,-26.1
2022-07-28T17:08:01.783Z,-26.3
2022-07-28T17:12:04.355Z,-26.2
2022-07-28T17:14:06.002Z,-26.2
2022-07-28T17:16:06.988Z,-26.2
2022-07-28T17:18:08.217Z,-26
2022-07-28T17:20:09.693Z,-26
2022-07-28T17:22:10.559Z,-26.5
2022-07-28T17:24:11.493Z,-26.2
2022-07-28T17:30:15.957Z,-26.4
2022-07-28T17:32:17.358Z,-25.8
2022-07-28T17:36:19.968Z,-26.3
2022-07-28T17:38:20.829Z,-26
2022-07-28T17:40:21.826Z,-26.1
2022-07-28T17:42:23.465Z,-26.2
2022-07-28T17:44:24.922Z,-26.4
2022-07-28T17:46:26.594Z,-26
2022-07-28T17:48:27.879Z,-26.3
2022-07-28T17:50:28.760Z,-26
2022-07-28T17:54:31.275Z,-26.5
2022-07-28T18:04:38.681Z,-26.2
2022-07-28T18:06:39.829Z,-26.3
2022-07-28T18:08:41.059Z,-26.3
2022-07-28T18:10:42.233Z,-26.2
2022-07-28T18:12:43.543Z,-26
2022-07-28T18:14:44.931Z,-26.3
2022-07-28T18:16:46.203Z,-26.2
2022-07-28T18:18:47.156Z,-26.1
2022-07-28T18:20:48.242Z,-26.2
2022-07-28T18:22:50.567Z,-26.4
2022-07-28T18:24:51.417Z,-26.2
2022-07-28T18:26:53.025Z,-26.3
2022-07-28T18:28:54.005Z,-26.1
2022-07-28T18:30:54.963Z,-26.4
2022-07-28T18:32:55.810Z,-26.1
2022-07-28T18:34:57.478Z,-26.2
2022-07-28T18:36:58.940Z,-26.4
2022-07-28T18:39:00.330Z,-26.2
2022-07-28T18:45:04.220Z,-26.5
2022-07-28T18:47:05.811Z,-26.1
2022-07-28T18:49:07.475Z,-26.1
2022-07-28T18:51:09.150Z,-26.2
2022-07-28T18:53:10.922Z,-26.1
2022-07-28T18:55:12.310Z,-26.3
2022-07-28T18:57:14.103Z,-26.4
2022-07-28T19:03:18.538Z,-26.3
2022-07-28T19:05:19.559Z,-26.3
2022-07-28T19:07:20.666Z,-26.1
2022-07-28T19:09:22.254Z,-26.5
2022-07-28T19:11:23.944Z,-26.2
2022-07-28T19:13:25.274Z,-26.4
2022-07-28T19:15:27.085Z,-26.3
2022-07-28T19:17:28.421Z,-26.1
2022-07-28T19:19:29.941Z,-26.3
2022-07-28T19:21:31.700Z,-26.3
2022-07-28T19:23:32.978Z,-26.2
2022-07-28T19:25:34.665Z,-26.3
2022-07-28T19:27:35.956Z,-26.4
2022-07-28T19:29:36.817Z,-26.3
2022-07-28T19:33:43.089Z,-26.3
2022-07-28T19:35:41.342Z,-26.5
2022-07-28T19:37:43.022Z,-26.5
2022-07-28T19:39:45.921Z,-26.1
2022-07-28T19:43:47.089Z,-26.2
2022-07-28T19:45:48.897Z,-26.4
2022-07-28T19:47:50.279Z,-26
2022-07-28T19:49:51.656Z,-26.1
2022-07-28T19:53:53.640Z,-26.2
2022-07-28T19:55:54.899Z,-26.2
2022-07-28T19:59:57.769Z,-26.2
2022-07-28T20:01:58.926Z,-26.1
2022-07-28T20:04:00.287Z,-26.4
2022-07-28T20:06:01.472Z,-26
2022-07-28T20:08:02.903Z,-26.2
2022-07-28T20:12:05.235Z,-26.5
2022-07-28T20:16:07.110Z,-26.3
2022-07-28T20:18:08.226Z,-26.3
2022-07-28T20:20:10.018Z,-26.1
2022-07-28T20:22:11.527Z,-26.3
2022-07-28T20:28:14.592Z,-26.2
2022-07-28T20:30:15.635Z,-26.5
2022-07-28T20:32:16.598Z,-26.2
2022-07-28T20:34:18.044Z,-26.1
2022-07-28T20:36:18.339Z,-26
2022-07-28T20:38:19.667Z,-26.4
2022-07-28T20:42:22.260Z,-26.1
2022-07-28T20:44:28.984Z,-26.3
2022-07-28T20:46:25.673Z,-26.2
2022-07-28T20:48:26.670Z,-26.3
2022-07-28T20:50:28.425Z,-26.5
2022-07-28T20:52:29.461Z,-26.2
2022-07-28T20:54:30.331Z,-26.3
2022-07-28T20:56:31.232Z,-26.3
2022-07-28T20:58:32.391Z,-26.5
2022-07-28T21:00:33.885Z,-26.2
2022-07-28T21:04:36.076Z,-26.3
2022-07-28T21:06:37.908Z,-26.4
2022-07-28T21:08:39.188Z,-26
2022-07-28T21:10:40.366Z,-26.4
2022-07-28T21:14:43.005Z,-26.1
2022-07-28T21:16:44.496Z,-26.3
2022-07-28T21:20:47.990Z,-26.2
2022-07-28T21:24:54.690Z,-26.2
2022-07-28T21:26:51.225Z,-26.3
2022-07-28T21:28:52.322Z,-26.5
2022-07-28T21:30:54.122Z,-26.3
2022-07-28T21:34:56.865Z,-26.6
2022-07-28T21:36:57.750Z,-26.4
2022-07-28T21:41:00.299Z,-26.2
2022-07-28T21:43:01.574Z,-26.3
2022-07-28T21:45:03.146Z,-26.5
2022-07-28T21:47:04.091Z,-26.6
2022-07-28T21:49:05.293Z,-26.4
2022-07-28T21:53:08.265Z,-26.5
2022-07-28T21:57:15.065Z,-26.5
2022-07-28T21:59:12.156Z,-26.3
2022-07-28T22:01:13.484Z,-26.2
2022-07-28T22:03:14.840Z,-26.3
2022-07-28T22:09:18.052Z,-26.3
2022-07-28T22:13:21.379Z,-26.5
2022-07-28T22:15:22.512Z,-26.3
2022-07-28T22:17:24.035Z,-26.3
2022-07-28T22:19:25.535Z,-26.5
2022-07-28T22:23:28.875Z,-26.1
2022-07-28T22:24:12.610Z,-26.4
2022-07-28T22:26:13.658Z,-26.1
2022-07-28T22:28:15.360Z,-26.3
2022-07-28T22:30:16.444Z,-26.2
2022-07-28T22:32:17.429Z,-26.1
2022-07-28T22:34:18.451Z,-26.4
2022-07-28T22:36:19.429Z,-26.5
2022-07-28T22:38:20.278Z,-26.3
2022-07-28T22:40:21.401Z,-26.1
2022-07-28T22:44:24.861Z,-26.3
2022-07-28T22:46:26.058Z,-26.2
2022-07-28T22:48:27.720Z,-26.2
2022-07-28T22:50:29.046Z,-26.5
2022-07-28T22:52:30.231Z,-26.2
2022-07-28T22:54:31.415Z,-26.2
2022-07-28T22:56:34.870Z,-26.4
2022-07-28T23:00:36.399Z,-26.2
2022-07-28T23:02:37.322Z,-26.2
2022-07-28T23:04:38.654Z,-26.3
2022-07-28T23:06:40.181Z,-26.1
2022-07-28T23:08:41.740Z,-26.1
2022-07-28T23:10:42.920Z,-26.3
2022-07-28T23:12:44.059Z,-26.3
2022-07-28T23:14:45.325Z,-26.6
2022-07-28T23:16:46.570Z,-26.4
2022-07-28T23:18:48.293Z,-26.2
2022-07-28T23:20:49.971Z,-26.1
2022-07-28T23:22:50.967Z,-26.4
2022-07-28T23:24:52.420Z,-26.3
2022-07-28T23:26:54.070Z,-26.2
2022-07-28T23:28:55.282Z,-26.1
2022-07-28T23:32:57.679Z,-26.4
2022-07-28T23:34:58.935Z,-26.6
2022-07-28T23:36:59.999Z,-26.5
2022-07-28T23:39:01.430Z,-26.4
2022-07-28T23:41:02.660Z,-26.2
2022-07-28T23:43:04.357Z,-26.3
2022-07-28T23:45:05.938Z,-26.3
2022-07-28T23:47:07.496Z,-26.3
2022-07-28T23:49:09.331Z,-26.3
2022-07-28T23:51:10.220Z,-26.2
2022-07-28T23:53:11.884Z,-26.4
2022-07-28T23:55:12.891Z,-26.5
2022-07-28T23:57:14.359Z,-26.3
2022-07-28T23:59:15.766Z,-26.3
